Time;durP1;ratioP1;P1;durP2;ratioP2;P2;SDS_P1;SDS_P2;PMS_P1;PMS_P2;Temp;Humidity;BMP_temperature;BMP_pressure;BME280_temperature;BME280_humidity;BME280_pressure;Samples;Min_cycle;Max_cycle;Signal;HPM_P1;HPM_P2
2023/07/03 00:00:35;;;;;;;17.80;6.00;;;;;;;15.00;51.61;100035.50;111013;1215;138620;-61
2023/07/03 00:03:01;;;;;;;22.40;6.90;;;;;;;14.98;51.61;100039.04;111048;1212;99743;-61
2023/07/03 00:05:27;;;;;;;17.80;6.10;;;;;;;14.97;51.72;100044.90;110919;1209;138234;-62
2023/07/03 00:07:52;;;;;;;18.50;6.60;;;;;;;14.96;51.75;100044.25;111011;1210;97551;-62
2023/07/03 00:10:21;;;;;;;20.30;6.60;;;;;;;14.95;51.85;100047.55;111075;1209;138342;-61
2023/07/03 00:12:46;;;;;;;15.40;6.30;;;;;;;14.93;51.90;100052.21;111035;1215;99881;-61
2023/07/03 00:15:12;;;;;;;14.40;5.50;;;;;;;14.91;52.10;100055.39;111059;1209;95963;-61
2023/07/03 00:17:37;;;;;;;12.60;5.90;;;;;;;14.89;52.09;100055.20;110963;1212;138809;-61
2023/07/03 00:20:04;;;;;;;14.30;6.00;;;;;;;14.86;52.24;100052.49;111067;1212;96879;-62
2023/07/03 00:22:29;;;;;;;15.10;6.20;;;;;;;14.83;52.46;100053.79;111021;1212;141004;-61
2023/07/03 00:24:55;;;;;;;23.70;6.70;;;;;;;14.83;52.47;100057.08;111033;1212;96654;-62
2023/07/03 00:27:20;;;;;;;17.30;6.50;;;;;;;14.81;52.62;100058.11;111059;1210;97675;-61
2023/07/03 00:29:45;;;;;;;21.20;6.80;;;;;;;14.81;52.79;100061.89;110907;1212;138899;-61
2023/07/03 00:32:11;;;;;;;13.30;6.80;;;;;;;14.79;53.06;100064.73;111105;1210;97978;-62
2023/07/03 00:34:36;;;;;;;30.90;7.40;;;;;;;14.77;53.25;100062.90;110881;1210;139880;-61
2023/07/03 00:37:01;;;;;;;15.60;7.10;;;;;;;14.76;53.24;100065.62;111124;1209;97696;-62
2023/07/03 00:39:26;;;;;;;18.80;6.50;;;;;;;14.76;53.23;100066.00;111045;1212;99065;-61
2023/07/03 00:41:52;;;;;;;19.80;7.20;;;;;;;14.76;53.29;100062.23;111012;1212;139063;-61
2023/07/03 00:44:19;;;;;;;16.70;6.40;;;;;;;14.76;53.37;100067.44;111182;1212;98037;-61
2023/07/03 00:46:46;;;;;;;37.10;7.70;;;;;;;14.75;53.37;100071.83;111048;1212;138699;-62
2023/07/03 00:49:12;;;;;;;21.30;6.90;;;;;;;14.74;53.59;100072.61;111052;1210;97610;-62
2023/07/03 00:51:40;;;;;;;20.90;6.80;;;;;;;14.72;53.65;100070.76;110959;1208;97787;-61
2023/07/03 00:54:05;;;;;;;18.50;6.80;;;;;;;14.72;53.73;100068.09;110962;1209;138439;-62
2023/07/03 00:56:30;;;;;;;18.80;6.10;;;;;;;14.72;53.89;100068.27;111087;1213;97712;-61
2023/07/03 00:58:56;;;;;;;21.20;6.60;;;;;;;14.73;53.93;100072.55;110967;1210;138266;-61
2023/07/03 01:01:43;;;;;;;15.30;6.20;;;;;;;14.73;54.04;100070.34;111067;1209;97681;-61
2023/07/03 01:04:31;;;;;;;15.90;6.40;;;;;;;14.75;54.05;100069.33;111081;1209;97566;-62
2023/07/03 01:07:01;;;;;;;19.80;7.10;;;;;;;14.74;54.15;100071.48;111039;1209;97711;-61
2023/07/03 01:09:35;;;;;;;13.50;6.80;;;;;;;14.75;54.34;100071.95;111041;1210;111570;-61
2023/07/03 01:12:02;;;;;;;13.80;6.50;;;;;;;14.75;54.36;100068.24;110947;1210;139351;-61
2023/07/03 01:14:29;;;;;;;17.60;7.00;;;;;;;14.73;54.32;100068.52;111011;1209;97770;-61
2023/07/03 01:16:58;;;;;;;22.90;6.70;;;;;;;14.72;54.34;100071.51;110909;1212;138773;-61
2023/07/03 01:19:31;;;;;;;17.00;6.90;;;;;;;14.69;54.35;100069.91;111116;1212;95002;-62
2023/07/03 01:22:08;;;;;;;20.10;6.40;;;;;;;14.66;54.47;100066.48;111049;1212;111556;-64
2023/07/03 01:24:48;;;;;;;15.20;6.90;;;;;;;14.64;54.51;100067.20;110872;1210;138530;-61
2023/07/03 01:27:16;;;;;;;18.50;6.90;;;;;;;14.61;54.52;100069.88;110953;1212;108179;-61
2023/07/03 01:29:43;;;;;;;17.60;6.70;;;;;;;14.59;54.58;100064.09;111112;1210;138782;-61
2023/07/03 01:32:11;;;;;;;20.80;7.60;;;;;;;14.58;54.52;100069.60;111057;1212;99083;-61
2023/07/03 01:34:42;;;;;;;16.60;6.60;;;;;;;14.55;54.59;100066.70;110918;1209;139055;-61
2023/07/03 01:37:09;;;;;;;20.50;7.10;;;;;;;14.53;54.62;100067.80;111030;1212;98628;-61
2023/07/03 01:39:35;;;;;;;20.20;7.30;;;;;;;14.49;54.58;100063.36;111017;1212;97751;-62
2023/07/03 01:42:02;;;;;;;17.10;6.70;;;;;;;14.45;54.64;100061.15;110958;1209;138401;-62
2023/07/03 01:44:27;;;;;;;12.80;6.60;;;;;;;14.39;54.72;100061.16;111154;1209;98102;-61
2023/07/03 01:46:52;;;;;;;15.60;7.00;;;;;;;14.35;54.70;100063.02;111032;1209;138248;-62
2023/07/03 01:49:18;;;;;;;15.50;7.10;;;;;;;14.31;54.88;100060.29;111099;1209;97589;-61
2023/07/03 01:52:10;;;;;;;17.10;7.10;;;;;;;14.26;54.96;100057.88;111131;1214;96236;-61
2023/07/03 01:55:03;;;;;;;19.80;6.90;;;;;;;14.22;55.08;100058.73;110961;1213;138370;-61
2023/07/03 01:57:52;;;;;;;14.80;6.40;;;;;;;14.18;55.08;100057.56;111060;1214;99906;-62
2023/07/03 02:00:27;;;;;;;21.00;6.60;;;;;;;14.14;55.25;100059.84;111120;1209;139035;-62
2023/07/03 02:02:56;;;;;;;18.00;6.60;;;;;;;14.11;55.37;100062.72;111022;1212;97581;-62
2023/07/03 02:05:26;;;;;;;13.40;6.30;;;;;;;14.07;55.40;100063.14;111053;1209;140850;-62
2023/07/03 02:07:56;;;;;;;19.00;7.00;;;;;;;14.04;55.64;100062.84;111088;1209;111695;-62
2023/07/03 02:10:22;;;;;;;17.60;7.00;;;;;;;14.01;55.80;100063.74;110870;1209;141264;-63
2023/07/03 02:12:47;;;;;;;14.60;6.70;;;;;;;13.98;55.79;100063.19;110952;1210;99284;-62
2023/07/03 02:15:14;;;;;;;16.70;6.40;;;;;;;13.96;55.94;100066.91;111147;1209;97661;-61
2023/07/03 02:17:40;;;;;;;18.30;6.40;;;;;;;13.95;55.98;100067.88;110980;1210;137968;-62
2023/07/03 02:20:07;;;;;;;18.90;6.40;;;;;;;13.95;56.16;100070.02;111078;1209;97681;-62
2023/07/03 02:22:33;;;;;;;19.40;6.00;;;;;;;13.95;56.23;100065.90;111018;1209;139512;-63
2023/07/03 02:24:58;;;;;;;18.20;6.70;;;;;;;13.95;56.39;100066.85;111101;1212;97670;-66
2023/07/03 02:27:23;;;;;;;19.80;6.30;;;;;;;13.95;56.46;100067.36;111104;1209;97566;-62
2023/07/03 02:29:49;;;;;;;16.40;6.90;;;;;;;13.94;56.30;100071.20;110976;1212;139784;-61
2023/07/03 02:32:15;;;;;;;20.30;7.10;;;;;;;13.91;56.33;100070.69;111092;1212;97905;-61
2023/07/03 02:34:40;;;;;;;21.70;7.30;;;;;;;13.87;56.53;100069.50;111019;1208;138481;-61
2023/07/03 02:37:09;;;;;;;20.70;6.50;;;;;;;13.84;56.45;100069.55;111121;1209;97696;-62
2023/07/03 02:39:35;;;;;;;19.70;6.60;;;;;;;13.80;56.54;100070.89;111027;1210;108168;-62
2023/07/03 02:42:00;;;;;;;16.10;6.50;;;;;;;13.76;56.54;100067.40;110945;1209;139156;-62
2023/07/03 02:44:26;;;;;;;19.70;6.60;;;;;;;13.72;56.59;100071.59;111139;1208;96052;-62
2023/07/03 02:46:51;;;;;;;14.00;6.60;;;;;;;13.70;56.66;100073.53;110908;1212;139806;-62
2023/07/03 02:49:16;;;;;;;17.50;7.30;;;;;;;13.67;56.63;100069.92;111065;1209;97638;-62
2023/07/03 02:51:41;;;;;;;15.50;5.80;;;;;;;13.65;56.82;100072.73;111019;1209;97555;-62
2023/07/03 02:54:10;;;;;;;19.50;6.70;;;;;;;13.63;56.89;100068.89;110858;1212;138798;-62
2023/07/03 02:56:36;;;;;;;20.70;7.20;;;;;;;13.61;56.89;100069.79;111083;1212;97575;-62
2023/07/03 02:59:02;;;;;;;15.10;6.10;;;;;;;13.58;56.98;100071.92;110907;1209;138807;-61
2023/07/03 03:01:28;;;;;;;15.80;6.60;;;;;;;13.55;57.06;100068.94;111089;1212;98183;-61
2023/07/03 03:03:55;;;;;;;15.80;6.30;;;;;;;13.51;57.13;100063.46;111160;1209;96364;-62
2023/07/03 03:06:20;;;;;;;15.70;5.90;;;;;;;13.47;57.21;100063.88;111004;1212;138816;-62
2023/07/03 03:08:45;;;;;;;17.20;6.60;;;;;;;13.45;57.30;100063.69;111155;1212;97486;-63
2023/07/03 03:11:11;;;;;;;15.80;6.20;;;;;;;13.43;57.42;100065.59;111033;1210;139085;-62
2023/07/03 03:13:36;;;;;;;20.80;6.90;;;;;;;13.42;57.29;100066.39;111001;1209;97857;-62
2023/07/03 03:16:02;;;;;;;18.20;7.90;;;;;;;13.41;57.47;100072.91;111156;1212;97730;-62
2023/07/03 03:18:27;;;;;;;15.70;6.80;;;;;;;13.41;57.63;100071.27;110994;1209;138930;-61
2023/07/03 03:20:52;;;;;;;17.70;7.00;;;;;;;13.42;57.68;100069.45;111100;1209;97663;-62
2023/07/03 03:23:17;;;;;;;18.70;6.70;;;;;;;13.42;57.71;100072.14;110988;1209;138776;-62
2023/07/03 03:25:43;;;;;;;20.90;5.90;;;;;;;13.43;57.86;100072.61;111015;1209;97714;-62
2023/07/03 03:28:09;;;;;;;16.00;6.90;;;;;;;13.44;57.93;100073.27;111131;1210;98018;-63
2023/07/03 03:30:34;;;;;;;15.30;6.90;;;;;;;13.45;57.98;100070.66;110906;1209;139775;-62
2023/07/03 03:33:00;;;;;;;15.20;5.40;;;;;;;13.46;58.04;100068.25;111115;1212;97587;-61
2023/07/03 03:35:25;;;;;;;13.20;6.90;;;;;;;13.47;58.14;100072.16;110933;1212;138051;-61
2023/07/03 03:37:50;;;;;;;18.00;6.40;;;;;;;13.48;58.12;100072.81;111024;1209;97635;-61
2023/07/03 03:40:16;;;;;;;21.50;6.90;;;;;;;13.49;58.26;100074.70;111114;1212;97735;-62
2023/07/03 03:42:41;;;;;;;14.30;5.90;;;;;;;13.51;58.23;100078.54;110950;1209;139102;-62
2023/07/03 03:45:07;;;;;;;22.80;6.90;;;;;;;13.50;58.40;100075.52;111167;1209;97713;-62
2023/07/03 03:47:32;;;;;;;16.60;6.50;;;;;;;13.52;58.58;100074.29;110879;1210;139351;-62
2023/07/03 03:49:58;;;;;;;16.80;6.20;;;;;;;13.55;58.57;100076.45;111039;1210;97612;-62
2023/07/03 03:52:23;;;;;;;21.90;7.00;;;;;;;13.58;58.58;100073.06;110939;1210;138990;-62
2023/07/03 03:54:49;;;;;;;18.10;7.20;;;;;;;13.61;58.72;100069.96;110988;1212;97607;-62
2023/07/03 03:57:14;;;;;;;16.60;7.10;;;;;;;13.67;58.77;100072.13;111118;1210;97576;-62
2023/07/03 03:59:40;;;;;;;19.70;7.20;;;;;;;13.73;58.76;100070.27;110866;1209;139267;-61
2023/07/03 04:02:05;;;;;;;14.60;6.40;;;;;;;13.80;58.93;100066.20;111028;1212;99232;-62
2023/07/03 04:04:30;;;;;;;21.80;7.20;;;;;;;13.89;59.00;100070.61;110955;1212;139825;-62
2023/07/03 04:06:56;;;;;;;18.60;7.50;;;;;;;13.98;58.99;100069.31;111051;1210;97687;-62
2023/07/03 04:09:21;;;;;;;17.70;6.50;;;;;;;14.08;59.00;100067.77;111092;1212;96968;-61
2023/07/03 04:11:46;;;;;;;20.40;7.30;;;;;;;14.17;59.00;100067.65;110891;1212;138051;-62
2023/07/03 04:14:12;;;;;;;19.30;7.30;;;;;;;14.27;59.03;100066.11;111089;1208;97587;-62
2023/07/03 04:16:38;;;;;;;16.90;7.80;;;;;;;14.35;58.96;100063.77;110983;1213;138503;-62
2023/07/03 04:19:04;;;;;;;30.00;14.00;;;;;;;14.42;59.02;100059.15;111012;1209;97663;-62
2023/07/03 04:21:29;;;;;;;21.20;9.40;;;;;;;14.50;59.00;100055.54;111070;1213;97746;-62
2023/07/03 04:23:55;;;;;;;21.90;7.70;;;;;;;14.57;58.98;100051.66;111142;1209;139569;-62
2023/07/03 04:26:22;;;;;;;17.10;6.90;;;;;;;14.66;58.86;100054.28;111030;1212;97611;-62
2023/07/03 04:28:47;;;;;;;16.80;6.60;;;;;;;14.75;59.01;100052.73;110835;1208;138690;-62
2023/07/03 04:31:13;;;;;;;21.50;7.20;;;;;;;14.83;58.92;100047.86;111048;1212;97693;-62
2023/07/03 04:33:38;;;;;;;13.70;6.70;;;;;;;14.90;58.88;100051.27;111032;1208;97555;-61
2023/07/03 04:36:03;;;;;;;23.90;7.50;;;;;;;14.97;58.79;100045.95;110896;1212;138547;-62
2023/07/03 04:38:28;;;;;;;15.90;6.90;;;;;;;15.06;58.77;100049.64;111070;1209;96448;-62
2023/07/03 04:40:54;;;;;;;21.60;8.20;;;;;;;15.11;58.69;100040.80;110859;1212;138974;-62
2023/07/03 04:43:20;;;;;;;21.60;9.30;;;;;;;15.14;58.59;100044.41;111071;1212;95085;-62
2023/07/03 04:45:48;;;;;;;24.10;8.40;;;;;;;15.13;58.55;100039.94;110966;1213;97770;-62
2023/07/03 04:48:15;;;;;;;19.30;7.80;;;;;;;15.13;58.48;100033.46;110950;1209;138181;-62
2023/07/03 04:50:40;;;;;;;23.00;7.90;;;;;;;15.14;58.52;100036.66;111164;1210;97666;-62
2023/07/03 04:53:06;;;;;;;20.90;7.90;;;;;;;15.16;58.54;100037.75;110974;1212;138447;-62
2023/07/03 04:55:32;;;;;;;21.30;7.60;;;;;;;15.19;58.59;100036.80;110995;1209;97617;-62
2023/07/03 04:57:59;;;;;;;19.80;7.90;;;;;;;15.23;58.43;100035.30;111157;1209;96761;-62
2023/07/03 05:00:31;;;;;;;18.40;7.80;;;;;;;15.26;58.39;100042.23;110948;1210;138657;-61
2023/07/03 05:02:59;;;;;;;17.40;7.00;;;;;;;15.31;58.39;100040.14;111096;1209;100033;-63
2023/07/03 05:05:25;;;;;;;23.50;8.00;;;;;;;15.34;58.35;100042.38;110948;1209;139009;-61
2023/07/03 05:07:51;;;;;;;22.20;7.10;;;;;;;15.40;58.35;100044.89;111004;1209;97652;-61
2023/07/03 05:10:17;;;;;;;20.30;7.50;;;;;;;15.43;58.46;100040.11;111219;1208;97614;-61
2023/07/03 05:12:43;;;;;;;18.90;6.70;;;;;;;15.48;58.35;100037.75;110999;1209;138532;-63
2023/07/03 05:15:11;;;;;;;18.20;7.20;;;;;;;15.55;58.30;100033.67;111087;1212;97817;-61
2023/07/03 05:17:38;;;;;;;13.80;6.60;;;;;;;15.62;58.13;100031.86;110930;1213;138378;-61
2023/07/03 05:20:10;;;;;;;22.70;7.10;;;;;;;15.71;58.30;100032.98;111075;1208;99523;-61
2023/07/03 05:22:40;;;;;;;23.80;7.80;;;;;;;15.81;58.19;100034.02;110936;1212;138939;-61
2023/07/03 05:25:07;;;;;;;15.20;6.90;;;;;;;15.90;58.16;100032.99;111169;1209;100545;-61
2023/07/03 05:27:33;;;;;;;22.90;7.10;;;;;;;15.99;58.03;100030.38;111047;1212;107751;-61
2023/07/03 05:29:59;;;;;;;30.50;6.90;;;;;;;16.07;58.08;100033.20;110864;1212;139067;-61
2023/07/03 05:32:25;;;;;;;16.00;6.40;;;;;;;16.15;57.84;100034.51;111050;1212;96881;-60
2023/07/03 05:34:50;;;;;;;15.60;6.10;;;;;;;16.25;57.95;100035.23;110824;1212;138338;-61
2023/07/03 05:37:15;;;;;;;15.10;6.20;;;;;;;16.33;57.82;100039.45;110963;1209;97581;-60
2023/07/03 05:39:41;;;;;;;24.90;7.10;;;;;;;16.44;57.84;100040.07;110988;1209;97674;-60
2023/07/03 05:42:07;;;;;;;16.50;6.60;;;;;;;16.55;57.81;100037.74;110792;1210;139295;-60
2023/07/03 05:44:33;;;;;;;19.10;6.70;;;;;;;16.70;57.65;100035.36;112926;1208;95795;-61
2023/07/03 05:46:58;;;;;;;16.00;5.80;;;;;;;16.83;57.49;100033.23;112855;1208;138274;-61
2023/07/03 05:49:23;;;;;;;16.20;5.90;;;;;;;16.97;57.51;100029.23;110994;1212;97665;-61
2023/07/03 05:51:48;;;;;;;15.10;5.90;;;;;;;17.07;57.32;100029.89;110965;1208;97575;-60
2023/07/03 05:54:16;;;;;;;17.30;5.80;;;;;;;17.17;56.98;100037.73;110869;1209;139649;-60
2023/07/03 05:56:43;;;;;;;27.20;6.10;;;;;;;17.26;56.78;100035.41;110898;1209;97621;-60
2023/07/03 05:59:08;;;;;;;22.80;5.90;;;;;;;17.38;56.70;100033.34;110930;1209;138867;-61
2023/07/03 06:01:34;;;;;;;17.50;6.50;;;;;;;17.50;56.68;100027.80;110990;1212;97572;-60
2023/07/03 06:03:59;;;;;;;25.50;5.60;;;;;;;17.66;56.54;100031.07;111097;1208;97692;-61
2023/07/03 06:06:24;;;;;;;16.90;5.40;;;;;;;17.80;56.44;100029.72;110884;1208;139774;-61
2023/07/03 06:08:49;;;;;;;14.30;5.60;;;;;;;17.96;56.15;100029.99;111019;1209;97691;-61
2023/07/03 06:11:15;;;;;;;16.90;5.80;;;;;;;18.14;56.15;100027.23;110861;1212;138753;-61
2023/07/03 06:13:40;;;;;;;18.90;5.90;;;;;;;18.28;55.69;100029.77;110928;1208;97616;-61
2023/07/03 06:16:05;;;;;;;9.80;5.60;;;;;;;18.39;55.25;100027.36;111020;1210;97596;-61
2023/07/03 06:18:30;;;;;;;15.10;5.60;;;;;;;18.50;55.15;100026.84;110826;1208;137999;-61
2023/07/03 06:20:56;;;;;;;13.90;5.70;;;;;;;18.57;54.95;100028.92;111014;1209;97732;-60
2023/07/03 06:23:21;;;;;;;14.80;5.70;;;;;;;18.58;54.82;100032.27;110713;1213;138471;-61
2023/07/03 06:25:46;;;;;;;16.30;5.50;;;;;;;18.58;54.72;100039.15;110968;1208;97658;-61
2023/07/03 06:28:13;;;;;;;17.50;6.50;;;;;;;18.55;54.20;100042.48;110967;1208;97680;-62
2023/07/03 06:30:38;;;;;;;16.00;6.30;;;;;;;18.51;54.14;100041.19;111116;1209;138179;-60
2023/07/03 06:33:03;;;;;;;18.70;6.60;;;;;;;18.44;53.82;100045.73;111119;1212;97674;-60
2023/07/03 06:35:28;;;;;;;16.70;5.50;;;;;;;18.41;53.74;100052.34;110789;1212;139838;-61
2023/07/03 06:37:57;;;;;;;14.50;6.00;;;;;;;18.39;53.64;100054.69;111055;1209;97689;-61
2023/07/03 06:40:22;;;;;;;13.80;5.40;;;;;;;18.36;53.64;100059.48;110899;1212;138946;-60
2023/07/03 06:42:47;;;;;;;16.50;6.10;;;;;;;18.30;53.44;100065.73;110967;1209;97622;-61
2023/07/03 06:45:13;;;;;;;21.20;6.80;;;;;;;18.28;53.39;100068.85;111063;1212;98062;-62
2023/07/03 06:47:38;;;;;;;16.20;5.80;;;;;;;18.29;53.20;100066.98;110907;1209;138323;-61
2023/07/03 06:50:04;;;;;;;12.70;6.20;;;;;;;18.27;53.14;100066.00;111138;1208;97842;-61
2023/07/03 06:52:33;;;;;;;14.80;6.00;;;;;;;18.23;53.00;100063.27;110980;1209;138794;-61
2023/07/03 06:54:58;;;;;;;16.80;6.80;;;;;;;18.21;53.13;100062.63;111046;1212;97698;-61
2023/07/03 06:57:24;;;;;;;18.70;6.90;;;;;;;18.18;53.13;100063.96;110943;1212;96258;-61
2023/07/03 06:59:52;;;;;;;21.60;7.20;;;;;;;18.14;53.08;100059.52;110897;1209;139538;-61
2023/07/03 07:02:17;;;;;;;17.00;7.00;;;;;;;18.13;53.24;100060.90;110995;1209;102873;-61
2023/07/03 07:04:44;;;;;;;13.20;6.60;;;;;;;18.10;53.22;100055.22;110372;1212;140404;-61
2023/07/03 07:07:09;;;;;;;17.80;7.10;;;;;;;18.07;53.28;100059.48;110790;1208;98479;-62
2023/07/03 07:09:34;;;;;;;21.10;6.90;;;;;;;18.06;53.21;100059.69;110935;1209;99024;-61
2023/07/03 07:11:59;;;;;;;17.70;7.00;;;;;;;18.04;53.38;100061.84;110687;1209;138783;-60
2023/07/03 07:14:25;;;;;;;17.60;7.00;;;;;;;18.07;53.47;100063.24;110966;1212;100935;-61
2023/07/03 07:16:50;;;;;;;24.10;7.70;;;;;;;18.10;53.51;100064.10;110768;1210;140098;-61
2023/07/03 07:19:15;;;;;;;17.40;7.40;;;;;;;18.14;53.46;100068.10;111012;1212;97680;-61
2023/07/03 07:21:41;;;;;;;15.00;7.00;;;;;;;18.15;53.61;100056.98;110968;1209;97688;-60
2023/07/03 07:24:18;;;;;;;12.70;6.30;;;;;;;18.16;53.40;100054.33;110919;1212;138710;-60
2023/07/03 07:26:44;;;;;;;23.60;7.50;;;;;;;18.19;53.37;100051.58;110961;1212;97368;-61
2023/07/03 07:29:10;;;;;;;18.40;7.00;;;;;;;18.24;53.68;100051.13;110848;1209;141936;-61
2023/07/03 07:31:36;;;;;;;15.30;7.10;;;;;;;18.33;53.79;100045.98;111044;1208;96200;-61
2023/07/03 07:34:04;;;;;;;13.90;6.70;;;;;;;18.42;53.83;100040.46;111038;1212;98010;-61
2023/07/03 07:36:30;;;;;;;21.40;7.70;;;;;;;18.55;53.74;100038.52;110866;1212;138695;-61
2023/07/03 07:38:55;;;;;;;19.60;7.90;;;;;;;18.61;53.59;100036.37;111082;1208;96472;-61
2023/07/03 07:41:21;;;;;;;22.80;7.80;;;;;;;18.67;53.76;100032.02;110980;1212;140213;-60
2023/07/03 07:43:50;;;;;;;19.30;8.20;;;;;;;18.79;53.88;100032.47;110994;1209;96739;-60
2023/07/03 07:46:15;;;;;;;16.10;7.70;;;;;;;18.90;53.71;100032.24;110985;1212;97652;-61
2023/07/03 07:48:41;;;;;;;20.80;8.00;;;;;;;18.99;53.80;100028.46;110842;1208;137998;-61
2023/07/03 07:51:11;;;;;;;22.90;8.60;;;;;;;19.10;53.64;100023.86;111079;1209;97606;-60
2023/07/03 07:53:37;;;;;;;16.20;7.10;;;;;;;19.24;53.63;100020.66;110940;1212;138138;-61
2023/07/03 07:56:07;;;;;;;20.40;8.50;;;;;;;19.33;53.43;100016.94;110927;1208;97632;-61
2023/07/03 07:58:33;;;;;;;19.50;7.70;;;;;;;19.38;53.17;100019.79;110870;1212;138656;-61
2023/07/03 08:00:59;;;;;;;22.20;7.10;;;;;;;19.38;53.15;100018.28;110945;1208;97537;-60
2023/07/03 08:03:26;;;;;;;22.30;8.60;;;;;;;19.42;53.10;100023.93;111108;1212;97712;-61
2023/07/03 08:06:03;;;;;;;20.40;8.80;;;;;;;19.45;52.94;100021.50;110911;1209;138976;-60
2023/07/03 08:08:30;;;;;;;25.70;8.50;;;;;;;19.44;52.70;100018.30;111017;1208;97584;-61
2023/07/03 08:10:58;;;;;;;16.90;7.80;;;;;;;19.48;52.83;100021.09;110987;1212;138786;-61
2023/07/03 08:13:24;;;;;;;23.40;7.80;;;;;;;19.51;52.81;100019.52;111116;1210;97800;-60
2023/07/03 08:15:49;;;;;;;24.00;9.00;;;;;;;19.56;52.69;100021.26;111044;1212;97723;-62
2023/07/03 08:18:16;;;;;;;18.10;7.80;;;;;;;19.59;52.42;100019.49;111064;1212;140361;-62
2023/07/03 08:20:42;;;;;;;14.60;7.50;;;;;;;19.64;52.29;100017.83;111037;1208;103037;-59
2023/07/03 08:23:07;;;;;;;20.00;8.10;;;;;;;19.73;52.23;100016.75;110934;1208;138493;-62
2023/07/03 08:25:32;;;;;;;22.10;7.60;;;;;;;19.84;52.05;100011.07;111098;1212;97740;-62
2023/07/03 08:27:58;;;;;;;19.90;7.90;;;;;;;19.95;51.90;100006.22;111055;1208;97587;-61
2023/07/03 08:30:23;;;;;;;17.40;7.60;;;;;;;20.09;51.88;100002.19;110794;1208;139245;-59
2023/07/03 08:32:48;;;;;;;16.40;8.10;;;;;;;20.22;51.79;99998.67;110972;1209;98680;-60
2023/07/03 08:35:16;;;;;;;17.50;8.00;;;;;;;20.32;51.59;99991.10;110943;1212;139707;-60
2023/07/03 08:37:41;;;;;;;20.70;8.70;;;;;;;20.35;51.20;99992.33;110926;1212;97690;-61
2023/07/03 08:40:08;;;;;;;25.10;8.20;;;;;;;20.36;51.17;99996.40;111156;1208;97549;-60
2023/07/03 08:42:44;;;;;;;17.60;7.50;;;;;;;20.37;50.85;100001.70;111051;1208;139544;-59
2023/07/03 08:45:13;;;;;;;18.60;7.70;;;;;;;20.35;50.57;99991.35;111064;1208;97644;-60
2023/07/03 08:47:39;;;;;;;18.10;7.90;;;;;;;20.35;50.41;99990.84;110879;1208;139029;-60
2023/07/03 08:50:06;;;;;;;18.90;7.50;;;;;;;20.39;50.30;99993.92;111092;1208;97863;-60
2023/07/03 08:53:03;;;;;;;21.80;8.10;;;;;;;20.45;49.91;99995.05;111010;1208;138393;-60
2023/07/03 08:55:36;;;;;;;20.80;7.40;;;;;;;20.53;49.98;99989.73;110996;1209;99369;-61
2023/07/03 08:58:01;;;;;;;20.60;7.60;;;;;;;20.63;49.98;99988.80;111002;1212;97677;-60
2023/07/03 09:00:32;;;;;;;21.60;9.60;;;;;;;20.69;49.82;99984.91;110844;1208;139467;-61
2023/07/03 09:03:42;;;;;;;19.60;8.40;;;;;;;20.73;49.72;99983.47;111062;1208;102980;-61
2023/07/03 09:06:21;;;;;;;16.60;8.00;;;;;;;20.73;49.79;99981.58;110918;1208;138477;-60
2023/07/03 09:09:14;;;;;;;21.90;9.00;;;;;;;20.77;49.87;99978.66;111018;1209;99514;-61
2023/07/03 09:11:47;;;;;;;19.90;8.80;;;;;;;20.89;49.84;99980.41;110907;1212;139054;-61
2023/07/03 09:14:21;;;;;;;21.10;9.20;;;;;;;20.93;49.61;99980.70;111116;1209;97770;-60
2023/07/03 09:16:47;;;;;;;19.50;8.80;;;;;;;21.00;49.63;99983.08;110827;1208;140820;-60
2023/07/03 09:19:21;;;;;;;17.80;9.70;;;;;;;21.05;49.55;99980.14;111066;1212;97729;-60
2023/07/03 09:21:50;;;;;;;17.80;9.60;;;;;;;21.07;49.55;99972.10;111115;1209;98510;-60
2023/07/03 09:24:45;;;;;;;16.00;8.60;;;;;;;21.13;49.52;99974.23;110940;1212;139591;-61
2023/07/03 09:27:21;;;;;;;21.40;9.10;;;;;;;21.25;49.47;99972.13;111009;1208;97658;-61
2023/07/03 09:29:47;;;;;;;23.10;8.90;;;;;;;21.35;49.38;99964.31;110982;1209;141860;-61
2023/07/03 09:32:29;;;;;;;31.10;10.50;;;;;;;21.47;49.44;99972.89;111049;1212;97560;-64
2023/07/03 09:34:58;;;;;;;28.30;9.60;;;;;;;21.62;49.03;99969.23;110916;1212;138383;-62
2023/07/03 09:37:23;;;;;;;34.90;9.90;;;;;;;21.74;48.96;99968.79;111002;1209;97702;-64
2023/07/03 09:39:51;;;;;;;25.80;10.60;;;;;;;21.86;48.82;99974.92;110985;1213;97711;-65
2023/07/03 09:42:17;;;;;;;23.70;9.80;;;;;;;21.91;48.72;99972.58;110933;1209;139612;-63
2023/07/03 09:44:42;;;;;;;24.00;10.50;;;;;;;21.94;48.69;99969.05;111026;1212;97641;-63
2023/07/03 09:47:21;;;;;;;26.10;9.60;;;;;;;22.04;48.50;99967.88;110892;1212;138917;-67
2023/07/03 09:49:47;;;;;;;20.30;10.00;;;;;;;22.20;48.18;99973.67;111257;1209;97689;-66
2023/07/03 09:52:14;;;;;;;26.10;10.80;;;;;;;22.22;47.35;99980.95;111050;1212;97574;-66
2023/07/03 09:54:45;;;;;;;21.60;10.90;;;;;;;22.16;47.43;99970.15;110941;1209;139223;-66
2023/07/03 09:57:24;;;;;;;36.10;11.40;;;;;;;22.20;47.50;99971.52;111045;1208;99357;-64
2023/07/03 09:59:49;;;;;;;23.90;10.20;;;;;;;22.23;46.71;99973.76;110874;1209;141829;-61
2023/07/03 10:02:14;;;;;;;25.10;11.00;;;;;;;22.26;47.06;99966.70;111050;1212;97697;-61
2023/07/03 10:04:44;;;;;;;25.90;10.50;;;;;;;22.32;47.38;99966.04;111000;1209;139203;-62
2023/07/03 10:07:14;;;;;;;23.60;10.60;;;;;;;22.31;47.08;99968.38;111101;1208;100736;-62
2023/07/03 10:09:41;;;;;;;27.30;11.10;;;;;;;22.27;46.99;99971.67;110989;1226;97666;-62
2023/07/03 10:12:22;;;;;;;22.00;11.20;;;;;;;22.28;47.18;99967.21;110897;1208;139561;-62
2023/07/03 10:14:54;;;;;;;28.00;10.50;;;;;;;22.27;46.87;99969.19;111022;1208;102778;-62
2023/07/03 10:17:36;;;;;;;17.80;9.90;;;;;;;22.25;46.80;99969.89;110922;1212;139310;-62
2023/07/03 10:20:09;;;;;;;27.40;10.60;;;;;;;22.29;46.81;99968.05;110994;1212;100467;-61
2023/07/03 10:22:37;;;;;;;20.60;10.80;;;;;;;22.30;46.70;99966.63;110913;1208;138993;-61
2023/07/03 10:25:06;;;;;;;22.30;11.00;;;;;;;22.42;46.77;99959.76;111119;1208;99074;-61
2023/07/03 10:27:34;;;;;;;26.30;11.40;;;;;;;22.64;46.65;99964.36;110986;1213;103111;-62
2023/07/03 10:30:04;;;;;;;26.00;10.40;;;;;;;22.86;46.09;99974.15;111057;1208;139009;-59
2023/07/03 10:32:33;;;;;;;23.50;10.30;;;;;;;22.86;45.49;99966.96;111084;1209;99002;-59
2023/07/03 10:35:21;;;;;;;21.90;10.20;;;;;;;22.79;45.40;99964.98;110951;1208;138318;-59
2023/07/03 10:38:08;;;;;;;26.80;11.10;;;;;;;22.75;45.39;99964.56;111013;1208;99034;-59
2023/07/03 10:40:43;;;;;;;31.20;11.10;;;;;;;22.74;45.49;99965.14;110880;1209;138776;-59
2023/07/03 10:43:11;;;;;;;30.30;10.90;;;;;;;22.75;45.46;99968.29;111086;1208;96153;-59
2023/07/03 10:45:38;;;;;;;37.00;11.70;;;;;;;22.77;45.55;99964.25;111037;1212;100142;-61
2023/07/03 10:48:14;;;;;;;26.10;10.70;;;;;;;22.82;45.38;99966.31;110868;1209;138178;-61
2023/07/03 10:50:57;;;;;;;25.10;11.50;;;;;;;22.78;45.00;99977.89;111030;1212;96636;-62
2023/07/03 10:53:44;;;;;;;20.00;10.20;;;;;;;22.72;45.00;99987.56;110968;1212;138794;-62
2023/07/03 10:56:35;;;;;;;23.90;12.10;;;;;;;22.62;44.75;99987.92;111221;1208;96473;-62
2023/07/03 10:59:16;;;;;;;25.40;11.00;;;;;;;22.60;45.14;99994.34;110895;1212;139422;-60
2023/07/03 11:02:21;;;;;;;31.80;10.90;;;;;;;22.67;45.14;99990.49;111222;1208;97611;-60
2023/07/03 11:05:04;;;;;;;25.00;10.10;;;;;;;22.76;45.14;99990.46;111002;1213;138441;-60
2023/07/03 11:07:43;;;;;;;20.00;10.00;;;;;;;22.90;44.77;99989.32;110999;1210;102850;-60
2023/07/03 11:10:36;;;;;;;23.40;10.30;;;;;;;23.13;44.70;99982.31;111002;1208;96169;-60
2023/07/03 11:13:31;;;;;;;18.70;10.00;;;;;;;23.28;43.98;99977.60;111060;1212;99510;-60